Time;durP1;ratioP1;P1;durP2;ratioP2;P2;SDS_P1;SDS_P2;PMS_P1;PMS_P2;Temp;Humidity;BMP_temperature;BMP_pressure;BME280_temperature;BME280_humidity;BME280_pressure;Samples;Min_cycle;Max_cycle;Signal;HPM_P1;HPM_P2
2021/06/11 00:01:17;;;;;;;19.52;15.00;;;;;;;13.53;85.34;101858.69;5056514;28;20097;-77
2021/06/11 00:03:42;;;;;;;21.88;14.88;;;;;;;13.56;85.70;101854.94;5061948;28;20036;-78
2021/06/11 00:06:08;;;;;;;20.23;13.85;;;;;;;13.57;85.80;101859.25;5091443;28;20079;-77
2021/06/11 00:08:33;;;;;;;19.63;14.05;;;;;;;13.54;85.69;101848.97;5084095;28;20313;-78
2021/06/11 00:10:59;;;;;;;15.45;12.23;;;;;;;13.54;85.89;101856.88;5108565;28;20050;-74
2021/06/11 00:13:25;;;;;;;16.42;13.20;;;;;;;13.47;86.04;101850.50;5114962;28;20127;-79
2021/06/11 00:15:50;;;;;;;15.88;12.73;;;;;;;13.41;86.49;101846.63;5104510;28;20047;-78
2021/06/11 00:18:17;;;;;;;18.25;12.73;;;;;;;13.41;86.32;101852.75;5107191;28;20035;-76
2021/06/11 00:20:42;;;;;;;24.08;13.70;;;;;;;13.50;87.09;101858.97;5086583;28;20036;-78
2021/06/11 00:23:08;;;;;;;20.65;13.88;;;;;;;13.48;87.57;101860.91;5096706;28;20051;-78
2021/06/11 00:25:33;;;;;;;19.77;13.40;;;;;;;13.42;87.12;101846.47;5087448;28;20106;-79
2021/06/11 00:28:01;;;;;;;18.02;14.80;;;;;;;13.43;87.73;101844.69;5087973;28;20039;-79
2021/06/11 00:30:28;;;;;;;19.48;13.80;;;;;;;13.39;87.41;101841.50;5094416;28;20028;-80
2021/06/11 00:32:55;;;;;;;22.00;15.02;;;;;;;13.37;87.78;101837.31;5070323;28;20097;-79
2021/06/11 00:35:21;;;;;;;20.65;15.20;;;;;;;13.36;87.30;101846.22;5096432;28;20043;-78
2021/06/11 00:37:47;;;;;;;22.92;15.88;;;;;;;13.31;86.95;101843.97;5065009;28;20028;-79
2021/06/11 00:40:14;;;;;;;20.77;15.93;;;;;;;13.31;86.78;101843.97;5084014;28;20044;-80
2021/06/11 00:42:40;;;;;;;21.60;16.08;;;;;;;13.22;87.28;101835.09;5103432;28;20036;-78
2021/06/11 00:45:07;;;;;;;20.73;14.88;;;;;;;13.27;87.52;101839.09;5067504;28;20421;-78
2021/06/11 00:47:33;;;;;;;20.15;15.05;;;;;;;13.29;88.10;101839.78;5099830;28;20028;-78
2021/06/11 00:49:59;;;;;;;19.73;15.65;;;;;;;13.30;87.62;101849.34;5101841;28;20097;-78
2021/06/11 00:52:25;;;;;;;23.05;16.65;;;;;;;13.36;88.11;101840.94;5078749;28;20493;-79
2021/06/11 00:54:50;;;;;;;24.27;16.63;;;;;;;13.34;88.63;101841.09;5105410;28;20157;-79
2021/06/11 00:57:16;;;;;;;22.13;16.63;;;;;;;13.34;88.69;101837.63;5083206;28;20072;-76
2021/06/11 00:59:43;;;;;;;21.73;16.20;;;;;;;13.30;89.35;101841.44;5106473;28;20048;-79
2021/06/11 01:02:10;;;;;;;19.02;14.80;;;;;;;13.21;88.41;101830.78;5090333;28;20095;-77
2021/06/11 01:04:36;;;;;;;19.83;15.07;;;;;;;13.24;88.40;101824.38;5088578;28;20044;-81
2021/06/11 01:07:04;;;;;;;20.40;15.38;;;;;;;12.92;88.11;101778.06;5071163;28;20577;-78
2021/06/11 01:09:32;;;;;;;19.85;16.48;;;;;;;13.14;89.11;101828.81;5076376;28;20478;-79
2021/06/11 01:11:58;;;;;;;19.42;13.30;;;;;;;13.06;88.79;101824.25;5078827;28;20039;-79
2021/06/11 01:14:24;;;;;;;19.73;13.82;;;;;;;13.02;88.91;101828.13;5073479;28;20115;-77
2021/06/11 01:16:50;;;;;;;19.55;15.00;;;;;;;13.02;89.03;101836.03;5091266;28;20035;-78
2021/06/11 01:19:19;;;;;;;21.20;15.65;;;;;;;13.04;89.34;101823.56;5095188;28;20411;-77
2021/06/11 01:22:00;;;;;;;20.95;16.08;;;;;;;13.03;89.96;101830.63;5073592;28;20024;-80
2021/06/11 01:24:32;;;;;;;21.80;15.88;;;;;;;13.04;89.92;101828.81;5082823;28;20110;-82
2021/06/11 01:26:59;;;;;;;21.73;16.30;;;;;;;13.07;90.01;101831.16;5084482;28;20455;-80
2021/06/11 01:29:27;;;;;;;21.73;16.02;;;;;;;13.10;90.23;101822.16;5077584;28;20496;-80
2021/06/11 01:31:58;;;;;;;20.40;15.30;;;;;;;13.12;91.09;101826.31;5077838;28;20040;-78
2021/06/11 01:34:32;;;;;;;22.88;15.80;;;;;;;13.09;91.76;101829.25;5093895;28;20051;-79
2021/06/11 01:37:07;;;;;;;21.50;15.48;;;;;;;13.02;92.13;101826.31;5077612;28;20118;-79
2021/06/11 01:39:33;;;;;;;22.75;17.02;;;;;;;12.97;92.76;101825.06;5095005;28;20757;-81
2021/06/11 01:41:59;;;;;;;21.75;17.02;;;;;;;12.92;93.17;101827.25;5094830;28;20135;-79
2021/06/11 01:44:26;;;;;;;23.05;16.67;;;;;;;12.93;93.00;101828.94;5077798;28;20035;-79
2021/06/11 01:46:55;;;;;;;20.20;15.20;;;;;;;12.92;92.67;101829.88;5078168;28;20059;-79
2021/06/11 01:49:24;;;;;;;18.50;15.25;;;;;;;12.89;92.45;101824.91;5059468;28;20043;-79
2021/06/11 01:51:50;;;;;;;20.30;14.80;;;;;;;12.88;92.08;101828.50;5085645;28;20517;-79
2021/06/11 01:54:17;;;;;;;18.52;14.15;;;;;;;12.85;91.63;101822.53;5086975;28;20051;-80
2021/06/11 01:56:44;;;;;;;21.63;15.57;;;;;;;12.80;91.91;101824.72;5078773;28;20028;-80
2021/06/11 01:59:10;;;;;;;17.80;14.10;;;;;;;12.84;91.65;101820.84;5059793;28;20043;-77
2021/06/11 02:01:36;;;;;;;21.25;14.25;;;;;;;12.84;92.12;101825.28;5104413;28;20031;-80
2021/06/11 02:04:04;;;;;;;17.63;13.60;;;;;;;12.79;92.51;101824.84;5076524;28;20036;-77
2021/06/11 02:06:29;;;;;;;17.25;13.10;;;;;;;12.79;92.59;101830.97;5082048;28;20032;-80
2021/06/11 02:08:56;;;;;;;19.15;13.45;;;;;;;12.78;92.34;101828.47;5074063;28;20039;-78
2021/06/11 02:11:22;;;;;;;19.70;14.63;;;;;;;12.77;93.30;101829.44;5078369;28;20024;-80
2021/06/11 02:13:50;;;;;;;17.38;13.10;;;;;;;12.75;93.61;101829.59;5106254;28;20035;-78
2021/06/11 02:16:17;;;;;;;17.83;12.27;;;;;;;12.76;92.83;101835.69;5091355;28;20821;-79
2021/06/11 02:18:44;;;;;;;18.33;13.00;;;;;;;12.74;92.78;101830.53;5093989;28;20753;-78
2021/06/11 02:21:12;;;;;;;17.25;12.25;;;;;;;12.80;92.57;101834.44;5077748;28;20024;-79
2021/06/11 02:23:38;;;;;;;18.73;13.15;;;;;;;12.75;93.14;101832.22;5066050;28;20098;-78
2021/06/11 02:26:09;;;;;;;18.98;13.63;;;;;;;12.76;93.74;101827.78;5092187;28;20047;-80
2021/06/11 02:28:34;;;;;;;20.85;13.48;;;;;;;12.66;93.65;101815.41;5092449;28;20081;-76
2021/06/11 02:31:01;;;;;;;20.45;14.20;;;;;;;12.73;94.12;101833.31;5109177;28;20032;-77
2021/06/11 02:33:27;;;;;;;19.92;13.40;;;;;;;12.72;94.41;101823.75;5096504;28;20114;-79
2021/06/11 02:35:56;;;;;;;16.92;13.30;;;;;;;12.71;94.78;101825.53;5094857;28;20039;-79
2021/06/11 02:38:23;;;;;;;17.00;13.27;;;;;;;12.76;94.36;101823.34;5066147;28;20088;-80
2021/06/11 02:40:50;;;;;;;22.02;13.43;;;;;;;12.75;93.89;101826.97;5079798;28;20162;-80
2021/06/11 02:43:19;;;;;;;16.52;13.32;;;;;;;12.73;94.22;101822.78;5055773;28;20685;-78
2021/06/11 02:46:22;;;;;;;20.15;14.13;;;;;;;12.71;94.47;101830.81;5055755;28;20028;-79
2021/06/11 02:49:08;;;;;;;22.00;15.35;;;;;;;12.70;94.19;101817.78;5074417;28;20123;-78
2021/06/11 02:51:40;;;;;;;20.13;14.80;;;;;;;12.65;94.12;101819.00;5056266;28;20059;-78
2021/06/11 02:54:20;;;;;;;19.25;15.32;;;;;;;12.69;94.56;101818.75;5062247;28;20019;-81
2021/06/11 02:56:50;;;;;;;19.13;15.30;;;;;;;12.70;94.38;101825.69;5074802;28;20433;-81
2021/06/11 02:59:25;;;;;;;22.10;15.77;;;;;;;12.68;95.00;101830.22;5073509;28;20035;-78
2021/06/11 03:01:57;;;;;;;24.48;17.45;;;;;;;12.60;95.27;101818.59;5074470;28;20035;-80
2021/06/11 03:04:25;;;;;;;23.38;18.00;;;;;;;12.61;95.42;101822.06;5076989;28;20063;-81
2021/06/11 03:06:53;;;;;;;29.52;20.15;;;;;;;12.55;95.75;101815.53;5081871;28;20034;-79
2021/06/11 03:09:22;;;;;;;27.52;19.40;;;;;;;12.64;95.51;101820.00;5083192;28;20043;-78
2021/06/11 03:11:52;;;;;;;27.15;18.08;;;;;;;12.61;95.48;101822.88;5071513;28;20502;-79
2021/06/11 03:14:17;;;;;;;23.48;18.20;;;;;;;12.63;95.97;101826.19;5094331;28;20062;-79
2021/06/11 03:16:48;;;;;;;24.58;18.08;;;;;;;12.70;95.45;101825.69;5078654;28;20051;-79
2021/06/11 03:19:18;;;;;;;26.00;18.30;;;;;;;12.69;95.64;101824.84;5086227;28;20518;-75
2021/06/11 03:21:49;;;;;;;31.23;20.27;;;;;;;12.71;95.64;101828.16;5094696;28;20024;-79
2021/06/11 03:24:14;;;;;;;35.10;21.92;;;;;;;12.76;95.50;101828.59;5084341;28;20067;-76
2021/06/11 03:26:48;;;;;;;26.48;20.33;;;;;;;12.79;95.56;101830.13;5091055;28;20043;-78
2021/06/11 03:29:21;;;;;;;32.75;20.92;;;;;;;12.80;95.87;101831.81;5091156;28;20114;-78
2021/06/11 03:31:50;;;;;;;28.73;20.52;;;;;;;12.77;96.25;101825.03;5088341;28;20391;-79
2021/06/11 03:34:21;;;;;;;32.08;21.77;;;;;;;12.77;96.25;101829.44;5087927;28;20449;-79
2021/06/11 03:36:49;;;;;;;33.08;21.73;;;;;;;12.83;96.50;101828.91;5073127;28;20123;-79
2021/06/11 03:39:47;;;;;;;28.30;20.10;;;;;;;12.83;96.31;101827.09;5081793;28;20453;-77
2021/06/11 03:42:13;;;;;;;29.77;21.05;;;;;;;12.87;95.94;101826.84;5081977;28;20043;-80
2021/06/11 03:44:48;;;;;;;29.13;20.73;;;;;;;12.91;95.33;101829.06;5055470;28;20039;-80
2021/06/11 03:47:17;;;;;;;28.27;20.63;;;;;;;12.94;96.14;101831.44;5056931;28;20081;-79
2021/06/11 03:49:45;;;;;;;27.48;20.33;;;;;;;13.00;95.71;101819.53;5071897;28;20032;-81
2021/06/11 03:52:12;;;;;;;27.85;21.27;;;;;;;13.03;96.20;101828.00;5072552;28;20066;-80
2021/06/11 03:54:43;;;;;;;27.33;20.38;;;;;;;13.07;96.53;101828.53;5095077;28;20110;-78
2021/06/11 03:57:10;;;;;;;30.77;22.73;;;;;;;13.08;96.41;101824.94;5092353;28;20031;-79
2021/06/11 03:59:39;;;;;;;28.33;21.70;;;;;;;13.08;96.29;101821.47;5071231;28;20036;-79
2021/06/11 04:02:05;;;;;;;36.38;23.77;;;;;;;13.10;96.11;101820.38;5072617;28;20040;-80
2021/06/11 04:04:32;;;;;;;33.17;24.58;;;;;;;13.16;96.41;101825.06;5055327;28;20723;-79
2021/06/11 04:07:06;;;;;;;33.88;23.35;;;;;;;13.20;96.58;101820.38;5092815;28;20031;-80
2021/06/11 04:09:42;;;;;;;36.70;25.05;;;;;;;13.22;96.69;101818.41;5112969;27;20702;-79
2021/06/11 04:12:10;;;;;;;42.13;26.77;;;;;;;13.27;95.89;101812.75;5076503;28;20031;-81
2021/06/11 04:14:40;;;;;;;36.38;25.75;;;;;;;13.38;96.26;101817.94;5076288;28;20158;-82
2021/06/11 04:17:10;;;;;;;34.60;24.55;;;;;;;13.37;96.53;101809.19;5071353;28;20743;-82
2021/06/11 04:19:43;;;;;;;41.05;26.08;;;;;;;13.50;96.39;101827.34;5094130;28;20035;-79
2021/06/11 04:22:12;;;;;;;;;;;;;;;13.55;96.20;101822.50;5091464;28;20027;-82
2021/06/11 04:24:42;;;;;;;36.78;26.77;;;;;;;13.60;96.28;101825.56;5073256;28;19916;-79
2021/06/11 04:27:08;;;;;;;48.65;28.50;;;;;;;13.67;97.06;101824.97;5081704;28;20123;-78
2021/06/11 04:29:35;;;;;;;42.78;29.23;;;;;;;13.78;96.25;101824.81;5093374;28;20146;-80
2021/06/11 04:32:00;;;;;;;48.25;32.67;;;;;;;13.82;96.56;101828.84;5085154;28;20043;-81
2021/06/11 04:34:26;;;;;;;45.78;30.35;;;;;;;13.90;96.86;101836.03;5071537;28;20036;-80
2021/06/11 04:36:53;;;;;;;42.20;29.35;;;;;;;13.98;96.65;101830.91;5074210;28;20498;-78
2021/06/11 04:39:19;;;;;;;44.38;31.00;;;;;;;14.07;95.82;101835.34;5072106;28;20038;-80
2021/06/11 04:41:45;;;;;;;44.00;29.50;;;;;;;14.16;95.52;101829.16;5072903;28;20064;-78
2021/06/11 04:44:10;;;;;;;43.90;30.17;;;;;;;14.23;95.03;101826.81;5084194;28;20032;-80
2021/06/11 04:46:36;;;;;;;42.55;29.60;;;;;;;14.30;94.27;101824.44;5088579;28;20092;-80
2021/06/11 04:49:05;;;;;;;45.60;30.15;;;;;;;14.43;94.78;101830.22;5073079;28;20032;-79
2021/06/11 04:51:31;;;;;;;43.78;30.38;;;;;;;14.55;94.71;101823.75;5068960;28;20104;-79
2021/06/11 04:53:56;;;;;;;45.92;29.38;;;;;;;14.60;93.28;101815.44;5075630;28;20036;-81
2021/06/11 04:56:22;;;;;;;47.22;30.35;;;;;;;14.73;92.70;101821.22;5088416;28;20054;-80
2021/06/11 04:58:49;;;;;;;47.92;29.27;;;;;;;14.80;92.59;101821.44;5089558;28;20052;-82
2021/06/11 05:01:15;;;;;;;43.72;30.73;;;;;;;14.88;92.60;101823.31;5098700;28;20027;-80
2021/06/11 05:03:40;;;;;;;46.10;29.42;;;;;;;14.91;91.98;101826.50;5084734;28;20109;-81
2021/06/11 05:06:06;;;;;;;46.70;30.52;;;;;;;14.95;91.04;101814.66;5057285;28;20032;-81
2021/06/11 05:08:32;;;;;;;51.40;33.58;;;;;;;15.04;92.34;101814.75;5061440;28;20401;-82
2021/06/11 05:10:59;;;;;;;48.38;31.40;;;;;;;15.16;91.28;101827.63;5072241;28;20036;-82
2021/06/11 05:13:25;;;;;;;42.30;27.90;;;;;;;15.24;92.07;101811.00;5102138;28;20032;-81
2021/06/11 05:15:50;;;;;;;48.90;30.88;;;;;;;15.35;91.47;101817.84;5061646;28;20028;-80
2021/06/11 05:18:17;;;;;;;53.05;32.45;;;;;;;15.41;90.56;101805.84;5104280;28;20157;-80
2021/06/11 05:20:42;;;;;;;57.58;30.50;;;;;;;15.60;89.18;101813.63;5088617;28;20052;-83
2021/06/11 05:23:09;;;;;;;48.85;29.70;;;;;;;15.72;90.51;101819.47;5071714;28;20063;-81
2021/06/11 05:25:36;;;;;;;46.33;29.35;;;;;;;15.80;89.98;101813.44;5106171;28;20032;-80
2021/06/11 05:28:02;;;;;;;45.38;30.23;;;;;;;15.93;89.11;101809.41;5064326;28;20042;-78
2021/06/11 05:30:27;;;;;;;47.70;30.88;;;;;;;16.07;88.80;101813.31;5075794;28;20529;-80
2021/06/11 05:32:54;;;;;;;56.30;33.58;;;;;;;16.23;86.52;101806.44;5072028;28;20087;-81
2021/06/11 05:35:19;;;;;;;48.45;29.35;;;;;;;16.48;84.48;101808.22;5120852;27;20043;-78
2021/06/11 05:37:45;;;;;;;44.47;29.42;;;;;;;16.66;83.67;101818.69;5088778;28;20032;-79
2021/06/11 05:40:12;;;;;;;46.15;30.92;;;;;;;16.83;83.39;101810.84;5091726;28;20278;-79
2021/06/11 05:42:37;;;;;;;47.90;28.77;;;;;;;16.93;82.51;101814.16;5076249;28;20142;-76
2021/06/11 05:45:04;;;;;;;39.45;28.23;;;;;;;17.15;79.46;101820.66;5100338;28;20036;-81
2021/06/11 05:47:30;;;;;;;42.42;27.05;;;;;;;17.35;77.84;101821.19;5110052;28;20036;-80
2021/06/11 05:49:55;;;;;;;43.50;27.17;;;;;;;17.38;77.51;101812.91;5059703;28;20039;-80
2021/06/11 05:52:21;;;;;;;46.50;25.58;;;;;;;17.40;77.13;101826.00;5077095;28;20406;-77
2021/06/11 05:54:47;;;;;;;40.40;25.50;;;;;;;17.52;78.18;101817.56;5074244;28;20051;-77
2021/06/11 05:57:12;;;;;;;36.75;24.35;;;;;;;17.77;76.04;101820.19;5110711;28;20020;-81
2021/06/11 05:59:38;;;;;;;31.90;23.05;;;;;;;18.02;73.75;101814.88;5076517;28;20048;-82
2021/06/11 06:02:03;;;;;;;31.52;22.90;;;;;;;18.16;73.99;101824.78;5078473;28;20052;-78
2021/06/11 06:04:29;;;;;;;32.00;21.60;;;;;;;18.17;73.19;101815.81;5077422;28;20047;-79
2021/06/11 06:06:58;;;;;;;28.30;22.55;;;;;;;18.40;72.45;101820.38;5082677;28;20028;-80
2021/06/11 06:09:23;;;;;;;33.75;22.75;;;;;;;18.54;70.87;101811.69;5092199;28;20272;-81
2021/06/11 06:11:49;;;;;;;36.15;24.45;;;;;;;18.51;70.62;101804.06;5076857;28;20500;-81
2021/06/11 06:14:15;;;;;;;30.38;23.20;;;;;;;18.69;70.56;101811.78;5075844;28;20063;-80
2021/06/11 06:16:40;;;;;;;31.65;22.45;;;;;;;18.77;70.64;101803.78;5082264;28;20461;-83
2021/06/11 06:19:06;;;;;;;31.33;23.23;;;;;;;18.97;68.48;101808.69;5109379;28;20039;-79
2021/06/11 06:21:32;;;;;;;25.85;19.98;;;;;;;19.00;69.62;101810.97;5073917;28;20691;-78
2021/06/11 06:23:58;;;;;;;31.63;21.58;;;;;;;18.95;71.54;101810.66;5087758;28;20558;-78
2021/06/11 06:26:24;;;;;;;25.60;20.38;;;;;;;18.93;72.94;101810.88;5098934;28;20024;-81
2021/06/11 06:28:50;;;;;;;26.23;18.95;;;;;;;19.01;75.08;101810.00;5103957;28;20188;-80
2021/06/11 06:31:16;;;;;;;22.77;16.17;;;;;;;19.14;71.80;101804.91;5072740;28;20051;-78
2021/06/11 06:33:41;;;;;;;17.77;12.77;;;;;;;19.20;66.77;101801.53;5073887;28;20553;-80
2021/06/11 06:36:08;;;;;;;18.17;12.63;;;;;;;19.38;67.86;101809.22;5084356;28;20035;-78
2021/06/11 06:38:35;;;;;;;15.55;11.73;;;;;;;19.51;62.74;101811.25;5075483;28;20032;-81
2021/06/11 06:41:00;;;;;;;17.45;11.50;;;;;;;19.58;64.39;101806.88;5077744;28;20582;-77
2021/06/11 06:43:27;;;;;;;21.60;14.10;;;;;;;19.76;61.96;101806.56;5074138;28;20043;-79
2021/06/11 06:45:53;;;;;;;22.20;12.73;;;;;;;19.69;63.00;101797.63;5107315;28;20039;-80
2021/06/11 06:48:18;;;;;;;13.90;11.70;;;;;;;19.83;66.47;101810.19;5089342;28;20044;-79
2021/06/11 06:50:44;;;;;;;19.05;13.20;;;;;;;19.90;64.70;101807.59;5093154;28;20027;-81
2021/06/11 06:53:11;;;;;;;16.10;10.15;;;;;;;19.96;60.51;101806.84;5076930;28;20042;-78
2021/06/11 06:55:37;;;;;;;12.88;7.93;;;;;;;20.08;62.61;101801.91;5110369;28;20032;-80
2021/06/11 06:58:03;;;;;;;9.40;7.30;;;;;;;20.13;59.18;101809.34;5111344;28;20047;-80
2021/06/11 07:00:29;;;;;;;10.85;6.85;;;;;;;20.21;57.88;101806.56;5105574;28;20028;-80
2021/06/11 07:02:54;;;;;;;7.90;5.72;;;;;;;20.47;57.17;101805.28;5074419;28;20035;-77
2021/06/11 07:05:20;;;;;;;9.98;5.60;;;;;;;20.58;58.75;101804.81;5072877;28;20161;-80
2021/06/11 07:07:45;;;;;;;13.70;5.85;;;;;;;20.66;58.45;101806.56;5063079;28;20032;-79
2021/06/11 07:10:11;;;;;;;8.15;4.80;;;;;;;20.85;60.55;101800.66;5125122;27;20039;-78
2021/06/11 07:12:37;;;;;;;6.47;5.25;;;;;;;20.93;59.17;101803.19;5095146;28;20181;-81
2021/06/11 07:15:09;;;;;;;9.63;5.32;;;;;;;21.08;57.49;101797.78;5081878;28;20023;-79
2021/06/11 07:17:35;;;;;;;5.72;4.75;;;;;;;21.22;59.07;101806.72;5093235;28;20039;-79
2021/06/11 07:20:02;;;;;;;8.25;5.00;;;;;;;21.21;58.87;101813.09;5092664;28;20043;-77
2021/06/11 07:22:28;;;;;;;10.35;5.32;;;;;;;21.37;58.81;101825.34;5077584;28;20031;-80
2021/06/11 07:24:54;;;;;;;6.05;4.35;;;;;;;21.34;59.34;101815.88;5093695;28;20038;-81
2021/06/11 07:27:19;;;;;;;7.45;5.20;;;;;;;21.46;57.08;101815.41;5091680;28;20508;-79
2021/06/11 07:29:46;;;;;;;8.20;4.90;;;;;;;21.61;56.53;101821.47;5083571;28;20102;-81
2021/06/11 07:32:13;;;;;;;9.52;5.32;;;;;;;21.90;55.53;101822.28;5065411;28;20740;-79
2021/06/11 07:34:39;;;;;;;7.63;4.53;;;;;;;21.97;58.04;101818.63;5072689;28;20032;-80
2021/06/11 07:37:05;;;;;;;7.75;4.72;;;;;;;22.10;55.09;101820.56;5073729;28;20135;-79
2021/06/11 07:39:31;;;;;;;10.20;4.72;;;;;;;22.01;55.97;101823.59;5086597;28;20165;-78
2021/06/11 07:41:57;;;;;;;6.50;4.15;;;;;;;22.22;57.46;101831.50;5072874;28;20035;-78
2021/06/11 07:44:23;;;;;;;4.68;4.10;;;;;;;22.38;55.03;101825.06;5077353;28;20036;-77
2021/06/11 07:46:49;;;;;;;6.65;3.58;;;;;;;22.56;56.06;101827.19;5114991;27;20043;-79
2021/06/11 07:49:15;;;;;;;4.18;3.00;;;;;;;22.52;57.76;101824.06;5055063;28;20036;-76
2021/06/11 07:51:41;;;;;;;3.53;3.00;;;;;;;22.65;54.63;101831.31;5082292;28;20035;-80
2021/06/11 07:54:07;;;;;;;7.40;3.38;;;;;;;22.66;51.77;101819.63;5073004;28;20478;-77
2021/06/11 07:56:37;;;;;;;3.85;2.40;;;;;;;22.71;57.88;101829.69;5088912;28;20085;-78
2021/06/11 07:59:04;;;;;;;4.80;2.78;;;;;;;22.85;52.36;101835.91;5056062;28;20066;-80
2021/06/11 08:01:33;;;;;;;5.50;2.20;;;;;;;23.00;51.35;101828.56;5089005;28;20035;-80
2021/06/11 08:03:59;;;;;;;5.75;2.30;;;;;;;23.06;52.73;101829.63;5076635;28;20036;-79
2021/06/11 08:06:24;;;;;;;5.32;2.30;;;;;;;23.12;55.27;101820.78;5089962;28;20072;-80
2021/06/11 08:08:50;;;;;;;3.95;2.10;;;;;;;23.32;53.28;101821.63;5073499;28;20047;-79
2021/06/11 08:11:15;;;;;;;4.90;2.65;;;;;;;23.32;52.27;101818.94;5090535;28;20032;-81
2021/06/11 08:13:41;;;;;;;7.05;3.00;;;;;;;23.45;50.15;101814.59;5093329;28;20031;-82
2021/06/11 08:16:06;;;;;;;2.60;2.30;;;;;;;23.55;54.12;101819.56;5109849;28;20023;-79
2021/06/11 08:18:32;;;;;;;3.53;2.10;;;;;;;23.57;53.52;101818.31;5093094;28;20043;-81
2021/06/11 08:20:58;;;;;;;3.42;2.03;;;;;;;23.69;50.79;101830.03;5109103;28;20500;-81
2021/06/11 08:23:23;;;;;;;10.48;2.70;;;;;;;23.80;49.87;101815.22;5109201;28;20031;-77
2021/06/11 08:25:49;;;;;;;6.32;2.20;;;;;;;23.95;50.75;101812.31;5092286;28;20115;-81
2021/06/11 08:28:14;;;;;;;6.13;2.50;;;;;;;23.92;50.97;101806.56;5089101;28;20046;-79
2021/06/11 08:30:40;;;;;;;3.25;2.30;;;;;;;24.05;53.30;101818.09;5092903;28;20031;-82
2021/06/11 08:33:07;;;;;;;4.75;2.20;;;;;;;24.09;49.30;101819.31;5072625;28;20035;-79
2021/06/11 08:35:33;;;;;;;3.38;2.35;;;;;;;24.23;50.97;101812.03;5104436;28;20036;-80
2021/06/11 08:37:59;;;;;;;3.28;2.25;;;;;;;24.35;52.30;101817.56;5098390;28;20178;-77
2021/06/11 08:40:25;;;;;;;7.43;3.33;;;;;;;24.33;52.78;101811.59;5099068;28;20038;-81
2021/06/11 08:42:52;;;;;;;5.43;3.10;;;;;;;24.35;48.68;101817.56;5075854;28;20240;-80
2021/06/11 08:45:18;;;;;;;7.10;2.78;;;;;;;24.35;52.32;101817.56;5074542;28;20039;-79
2021/06/11 08:47:49;;;;;;;6.93;3.08;;;;;;;24.31;49.79;101813.66;5092331;28;20039;-81
2021/06/11 08:50:20;;;;;;;5.30;2.90;;;;;;;24.34;48.91;101825.84;5090633;28;20040;-79
2021/06/11 08:52:46;;;;;;;5.80;3.28;;;;;;;24.35;48.26;101820.22;5084796;28;20517;-80
2021/06/11 08:55:12;;;;;;;4.63;2.80;;;;;;;24.58;48.35;101819.78;5080855;28;20036;-77
2021/06/11 08:57:38;;;;;;;5.38;2.90;;;;;;;24.78;48.93;101821.53;5091333;28;20040;-79
2021/06/11 09:00:07;;;;;;;5.13;2.58;;;;;;;24.72;48.03;101815.16;5090383;28;20040;-78
2021/06/11 09:02:33;;;;;;;7.75;3.55;;;;;;;24.95;48.57;101816.47;5091783;28;20043;-80
2021/06/11 09:04:58;;;;;;;4.97;2.90;;;;;;;25.08;49.63;101816.38;5074323;28;20036;-79
2021/06/11 09:07:26;;;;;;;7.00;2.95;;;;;;;25.16;49.10;101818.78;5071648;28;20079;-78
2021/06/11 09:10:04;;;;;;;6.93;2.75;;;;;;;25.18;47.21;101819.38;5086569;28;20044;-81
2021/06/11 09:12:38;;;;;;;6.15;2.10;;;;;;;25.15;47.04;101817.16;5092319;28;20493;-80
2021/06/11 09:15:12;;;;;;;5.57;2.28;;;;;;;25.13;49.19;101829.13;5070593;28;20474;-80
2021/06/11 09:17:38;;;;;;;6.05;2.28;;;;;;;25.11;50.30;101824.00;5079587;28;20059;-78
2021/06/11 09:20:09;;;;;;;7.72;3.65;;;;;;;25.21;47.97;101823.50;5066467;28;20064;-76
2021/06/11 09:22:49;;;;;;;7.03;3.42;;;;;;;25.19;46.72;101818.34;5054628;28;20401;-82
2021/06/11 09:25:31;;;;;;;5.68;3.47;;;;;;;25.37;47.36;101814.13;5108448;28;20110;-81
2021/06/11 09:28:12;;;;;;;7.45;3.15;;;;;;;25.41;47.47;101807.25;5109109;28;20035;-79
2021/06/11 09:30:38;;;;;;;7.03;3.70;;;;;;;25.36;46.64;101809.81;5100082;28;20043;-81
2021/06/11 09:33:15;;;;;;;6.00;3.53;;;;;;;25.44;47.04;101806.81;5087901;28;20040;-81
2021/06/11 09:35:47;;;;;;;5.53;3.05;;;;;;;25.61;49.21;101820.53;5070258;28;20043;-79
2021/06/11 09:38:21;;;;;;;4.57;3.50;;;;;;;25.59;45.88;101815.38;5064218;28;20043;-78
2021/06/11 09:40:59;;;;;;;5.28;3.13;;;;;;;25.72;47.36;101817.09;5075955;28;20035;-77
2021/06/11 09:43:27;;;;;;;7.93;3.58;;;;;;;25.51;45.75;101812.97;5083173;28;20122;-80
2021/06/11 09:46:01;;;;;;;6.78;3.47;;;;;;;25.50;48.01;101815.88;5090997;28;20087;-80
2021/06/11 09:48:28;;;;;;;7.57;3.75;;;;;;;25.47;47.19;101802.88;5108841;28;20027;-80
2021/06/11 09:50:55;;;;;;;6.82;3.63;;;;;;;25.79;48.68;101803.63;5071522;28;20489;-81
2021/06/11 09:53:28;;;;;;;6.60;4.95;;;;;;;25.77;44.34;101803.03;5074135;28;20051;-79
2021/06/11 09:55:56;;;;;;;6.22;3.72;;;;;;;25.89;47.73;101811.97;5045964;23;20045;-83
2021/06/11 09:58:27;;;;;;;6.65;3.28;;;;;;;26.13;48.11;101806.81;4995932;28;20524;-82
2021/06/11 10:00:58;;;;;;;4.95;3.38;;;;;;;26.26;45.43;101803.94;4996539;28;20038;-83
2021/06/11 10:03:32;;;;;;;6.68;3.70;;;;;;;26.16;48.75;101803.63;4996666;28;20049;-83
2021/06/11 10:06:01;;;;;;;5.85;4.20;;;;;;;26.33;44.80;101804.66;5019245;28;20112;-82
2021/06/11 10:08:27;;;;;;;5.40;3.85;;;;;;;26.46;45.05;101811.75;5016514;28;20037;-82
2021/06/11 10:11:01;;;;;;;7.60;3.63;;;;;;;26.60;44.59;101799.81;5005000;28;20207;-81
2021/06/11 10:13:27;;;;;;;6.78;3.20;;;;;;;26.63;44.95;101800.41;5021098;28;20108;-82
2021/06/11 10:15:56;;;;;;;7.45;3.95;;;;;;;26.61;45.86;101798.75;4995849;28;20125;-82
2021/06/11 10:18:22;;;;;;;7.30;4.28;;;;;;;26.53;42.87;101793.66;5004743;28;20049;-82
2021/06/11 10:20:48;;;;;;;5.90;3.33;;;;;;;26.42;45.93;101792.53;5025292;28;20142;-84
2021/06/11 10:23:19;;;;;;;3.78;2.88;;;;;;;26.63;47.18;101784.25;5015221;28;20037;-85
2021/06/11 10:25:48;;;;;;;4.13;2.97;;;;;;;26.98;46.60;101805.88;5001600;28;20036;-81
2021/06/11 10:28:26;;;;;;;6.60;4.35;;;;;;;26.90;44.04;101792.75;5003106;28;20084;-83
2021/06/11 10:31:21;;;;;;;6.15;4.70;;;;;;;26.57;41.88;101789.47;4992181;28;20113;-82
2021/06/11 10:33:46;;;;;;;11.93;4.57;;;;;;;26.75;42.81;101802.09;5012018;28;21699;-85
2021/06/11 10:36:24;;;;;;;8.40;2.80;;;;;;;27.08;46.79;101800.75;5003476;28;20050;-84
2021/06/11 10:38:51;;;;;;;5.75;4.03;;;;;;;27.07;44.93;101798.28;5013514;28;20123;-82
2021/06/11 10:41:16;;;;;;;10.88;4.78;;;;;;;26.66;44.21;101800.75;4994927;28;20448;-80
2021/06/11 10:43:43;;;;;;;7.72;4.10;;;;;;;26.60;43.63;101801.69;5033849;28;20171;-83
2021/06/11 10:46:30;;;;;;;4.97;4.05;;;;;;;26.51;44.50;101786.88;5033859;28;20071;-80
2021/06/11 10:48:55;;;;;;;6.82;3.95;;;;;;;26.73;43.42;101793.41;5051291;28;20105;-81
2021/06/11 10:51:39;;;;;;;6.25;4.00;;;;;;;26.65;45.09;101792.91;5023276;28;20527;-84
2021/06/11 10:54:17;;;;;;;7.50;4.03;;;;;;;26.70;42.82;101788.47;4997853;28;20049;-86
2021/06/11 10:57:02;;;;;;;3.47;2.80;;;;;;;27.08;45.49;101781.91;5013907;28;20073;-86
2021/06/11 10:59:48;;;;;;;5.03;4.10;;;;;;;27.27;42.04;101787.22;5006111;28;20042;-83
2021/06/11 11:02:18;;;;;;;3.50;2.95;;;;;;;27.26;46.05;101778.34;4997318;28;20041;-80
2021/06/11 11:04:50;;;;;;;5.20;3.45;;;;;;;27.33;42.98;101778.19;5012891;28;20029;-82
2021/06/11 11:07:25;;;;;;;6.30;3.00;;;;;;;27.62;44.60;101786.44;5014850;28;20046;-83
2021/06/11 11:10:05;;;;;;;6.18;4.25;;;;;;;27.82;40.75;101777.94;5012255;28;20717;-83
2021/06/11 11:12:58;;;;;;;6.47;4.25;;;;;;;27.68;43.76;101772.00;5033500;28;20044;-83
2021/06/11 11:15:42;;;;;;;3.95;2.53;;;;;;;27.94;44.08;101770.69;5012328;28;20057;-84
2021/06/11 11:18:11;;;;;;;4.32;2.60;;;;;;;28.27;44.10;101779.97;5031542;28;20034;-80
2021/06/11 11:20:39;;;;;;;5.10;3.83;;;;;;;28.03;40.77;101766.56;5013794;28;20040;-81